createdAt,value
2023-05-03T00:00:17.294Z,12.4872
2023-05-03T00:01:19.603Z,12.8905
2023-05-03T00:02:21.958Z,12.4254
2023-05-03T00:03:24.444Z,12.8772
2023-05-03T00:04:26.614Z,12.3548
2023-05-03T00:05:28.963Z,11.8002
2023-05-03T00:06:31.332Z,11.6863
2023-05-03T00:07:33.631Z,12.9773
2023-05-03T00:08:35.973Z,12.1487
2023-05-03T00:09:38.298Z,12.8348
2023-05-03T00:10:40.668Z,12.3611
2023-05-03T00:11:42.982Z,13.1127
2023-05-03T00:12:45.331Z,12.5007
2023-05-03T00:13:47.670Z,12.4319
2023-05-03T00:14:50.024Z,12.0681
2023-05-03T00:15:52.329Z,12.5044
2023-05-03T00:16:54.706Z,13.0998
2023-05-03T00:17:57.079Z,12.4348
2023-05-03T00:18:59.374Z,12.4235
2023-05-03T00:20:02.022Z,13.0944
2023-05-03T00:21:04.053Z,12.7066
2023-05-03T00:22:06.367Z,12.4965
2023-05-03T00:23:08.719Z,13.7752
2023-05-03T00:24:11.078Z,13.4350
2023-05-03T00:25:13.402Z,12.2319
2023-05-03T00:26:15.721Z,12.5828
2023-05-03T00:27:18.066Z,12.5339
2023-05-03T00:28:20.408Z,12.7131
2023-05-03T00:29:22.774Z,12.7999
2023-05-03T00:30:25.106Z,13.7335
2023-05-03T00:31:27.436Z,12.5503
2023-05-03T00:32:29.767Z,12.6463
2023-05-03T00:33:32.112Z,12.3731
2023-05-03T00:34:34.473Z,12.7059
2023-05-03T00:35:36.785Z,12.5792
2023-05-03T00:36:39.118Z,12.9438
2023-05-03T00:37:41.486Z,13.3511
2023-05-03T00:38:43.840Z,12.4796
2023-05-03T00:39:46.187Z,12.6588
2023-05-03T00:40:48.537Z,12.3577
2023-05-03T00:41:50.872Z,11.9818
2023-05-03T00:42:53.188Z,12.4999
2023-05-03T00:43:55.525Z,12.2121
2023-05-03T00:44:57.867Z,12.3903
2023-05-03T00:46:12.504Z,12.8980
2023-05-03T00:47:02.574Z,12.2614
2023-05-03T00:48:04.913Z,12.1168
2023-05-03T00:49:07.252Z,12.0764
2023-05-03T00:50:09.547Z,12.5228
2023-05-03T00:51:11.887Z,12.4238
2023-05-03T00:52:15.229Z,12.9147
2023-05-03T00:53:16.586Z,12.3858
2023-05-03T00:54:18.890Z,12.2214
2023-05-03T00:55:21.226Z,13.0861
2023-05-03T00:56:23.573Z,12.8967
2023-05-03T00:57:25.943Z,12.2281
2023-05-03T00:58:28.293Z,12.1638
2023-05-03T00:59:30.624Z,12.2029
2023-05-03T01:00:32.933Z,12.0867
2023-05-03T01:01:35.301Z,12.0515
2023-05-03T01:02:37.771Z,12.7958
2023-05-03T01:03:40.059Z,12.9765
2023-05-03T01:04:43.233Z,12.1640
2023-05-03T01:05:44.615Z,12.1181
2023-05-03T01:06:47.112Z,12.8677
2023-05-03T01:07:49.289Z,12.4305
2023-05-03T01:08:51.682Z,12.1201
2023-05-03T01:09:54.014Z,12.1184
2023-05-03T01:10:56.363Z,11.3852
2023-05-03T01:11:58.637Z,12.5433
2023-05-03T01:13:01.044Z,12.8400
2023-05-03T01:14:03.360Z,12.8297
2023-05-03T01:15:05.716Z,12.4168
2023-05-03T01:16:08.024Z,13.1730
2023-05-03T01:17:10.344Z,12.0349
2023-05-03T01:18:12.751Z,12.4191
2023-05-03T01:19:15.227Z,11.8001
2023-05-03T01:20:17.432Z,13.4936
2023-05-03T01:21:19.712Z,13.2448
2023-05-03T01:22:22.060Z,12.5522
2023-05-03T01:23:24.405Z,12.6181
2023-05-03T01:24:26.733Z,13.2997
2023-05-03T01:25:29.073Z,13.2699
2023-05-03T01:26:31.408Z,12.7035
2023-05-03T01:27:33.748Z,12.6814
2023-05-03T01:28:36.083Z,13.6298
2023-05-03T01:29:38.441Z,13.3875
2023-05-03T01:30:40.822Z,13.4448
2023-05-03T01:31:43.145Z,13.9332
2023-05-03T01:32:45.520Z,12.7018
2023-05-03T01:33:47.801Z,13.7441
2023-05-03T01:34:50.144Z,13.0530
2023-05-03T01:35:52.470Z,12.4593
2023-05-03T01:36:54.850Z,12.7453
2023-05-03T01:37:57.164Z,12.7103
2023-05-03T01:38:59.513Z,13.4938
2023-05-03T01:40:02.242Z,12.5852
2023-05-03T01:41:04.176Z,11.8490
2023-05-03T01:42:06.518Z,12.9634
2023-05-03T01:43:08.856Z,13.5408
2023-05-03T01:44:11.235Z,13.3058
2023-05-03T01:45:13.595Z,13.6963
2023-05-03T01:46:15.899Z,13.4787
2023-05-03T01:47:18.211Z,13.8286
2023-05-03T01:48:20.621Z,13.8825
2023-05-03T01:49:22.937Z,13.9563
2023-05-03T01:50:25.238Z,13.8612
2023-05-03T01:51:27.640Z,12.9367
2023-05-03T01:52:29.950Z,12.4758
2023-05-03T01:53:32.306Z,13.9525
2023-05-03T01:54:34.601Z,12.4721
2023-05-03T01:55:36.948Z,12.7707
2023-05-03T01:56:39.317Z,12.7692
2023-05-03T01:57:41.627Z,11.8535
2023-05-03T01:58:43.958Z,12.4651
2023-05-03T01:59:46.314Z,12.8994
2023-05-03T02:00:48.677Z,12.5776
2023-05-03T02:01:50.989Z,10.9687
2023-05-03T02:02:53.445Z,12.6924
2023-05-03T02:03:55.702Z,12.8593
2023-05-03T02:04:58.020Z,12.8116
2023-05-03T02:06:00.344Z,12.0416
2023-05-03T02:07:02.724Z,11.9012
2023-05-03T02:08:05.060Z,12.8962
2023-05-03T02:09:07.376Z,12.6439
2023-05-03T02:10:09.718Z,12.8712
2023-05-03T02:11:12.061Z,12.9059
2023-05-03T02:12:14.391Z,12.6818
2023-05-03T02:13:16.796Z,12.7041
2023-05-03T02:14:19.087Z,12.7310
2023-05-03T02:15:21.457Z,13.3011
2023-05-03T02:16:23.834Z,12.9308
2023-05-03T02:17:26.120Z,13.4066
2023-05-03T02:18:28.479Z,12.8802
2023-05-03T02:19:30.818Z,12.7876
2023-05-03T02:20:33.145Z,12.6890
2023-05-03T02:21:35.488Z,12.6110
2023-05-03T02:22:37.817Z,12.7440
2023-05-03T02:23:40.163Z,12.5971
2023-05-03T02:24:42.511Z,11.9180
2023-05-03T02:25:44.793Z,12.1999
2023-05-03T02:26:47.175Z,12.0758
2023-05-03T02:27:49.502Z,11.9974
2023-05-03T02:28:51.799Z,12.0109
2023-05-03T02:29:54.197Z,11.5152
2023-05-03T02:30:56.549Z,12.5074
2023-05-03T02:31:58.864Z,13.1574
2023-05-03T02:33:01.205Z,12.9400
2023-05-03T02:34:03.505Z,13.3455
2023-05-03T02:35:05.859Z,12.5867
2023-05-03T02:36:08.193Z,11.9405
2023-05-03T02:37:10.509Z,12.3553
2023-05-03T02:38:12.864Z,12.2730
2023-05-03T02:39:15.207Z,11.3343
2023-05-03T02:40:17.530Z,12.7311
2023-05-03T02:41:19.871Z,12.6570
2023-05-03T02:42:22.236Z,12.1280
2023-05-03T02:43:24.548Z,11.4802
2023-05-03T02:44:26.886Z,12.2050
2023-05-03T02:45:29.202Z,12.6471
2023-05-03T02:46:31.610Z,12.5528
2023-05-03T02:47:34.023Z,12.4662
2023-05-03T02:48:36.246Z,11.7939
2023-05-03T02:49:38.615Z,12.0081
2023-05-03T02:50:40.932Z,12.0153
2023-05-03T02:51:43.275Z,12.3571
2023-05-03T02:52:45.624Z,12.3091
2023-05-03T02:53:47.966Z,11.4631
2023-05-03T02:54:50.279Z,11.7597
2023-05-03T02:55:52.627Z,12.1363
2023-05-03T02:56:54.953Z,11.9383
2023-05-03T02:57:57.350Z,11.5136
2023-05-03T02:58:59.628Z,12.1228
2023-05-03T03:00:02.383Z,12.6196
2023-05-03T03:01:04.323Z,13.4792
2023-05-03T03:02:06.849Z,12.2663
2023-05-03T03:03:09.093Z,12.8330
2023-05-03T03:04:11.445Z,12.8441
2023-05-03T03:05:13.665Z,13.0915
2023-05-03T03:06:16.077Z,13.9486
2023-05-03T03:07:18.345Z,14.2538
2023-05-03T03:08:20.748Z,14.1811
2023-05-03T03:09:23.046Z,14.0488
2023-05-03T03:10:25.387Z,14.2942
2023-05-03T03:11:27.742Z,14.1283
2023-05-03T03:12:30.052Z,13.7533
2023-05-03T03:13:32.401Z,13.5000
2023-05-03T03:14:34.773Z,13.7989
2023-05-03T03:15:37.095Z,14.1608
2023-05-03T03:16:39.550Z,13.5659
2023-05-03T03:17:41.864Z,13.4905
2023-05-03T03:18:44.112Z,14.3587
2023-05-03T03:19:46.488Z,14.8381
2023-05-03T03:20:48.791Z,14.2838
2023-05-03T03:21:51.134Z,14.5824
2023-05-03T03:22:53.513Z,15.5065
2023-05-03T03:23:55.829Z,15.1592
2023-05-03T03:24:58.151Z,14.9865
2023-05-03T03:26:00.525Z,13.4330
2023-05-03T03:27:02.875Z,14.2718
2023-05-03T03:28:05.172Z,13.9226
2023-05-03T03:29:07.523Z,13.9579
2023-05-03T03:30:09.894Z,13.3468
2023-05-03T03:31:12.298Z,13.6912
2023-05-03T03:32:14.622Z,13.5979
2023-05-03T03:33:16.909Z,14.3281
2023-05-03T03:34:19.250Z,13.1966
2023-05-03T03:35:21.665Z,13.2149
2023-05-03T03:36:23.959Z,13.3273
2023-05-03T03:37:26.362Z,13.4875
2023-05-03T03:38:28.692Z,14.2544
2023-05-03T03:39:31.034Z,13.2636
2023-05-03T03:40:33.360Z,14.3483
2023-05-03T03:41:35.721Z,14.3474
2023-05-03T03:42:38.013Z,14.0278
2023-05-03T03:43:40.339Z,14.4541
2023-05-03T03:44:42.716Z,14.0812
2023-05-03T03:45:45.059Z,13.6473
2023-05-03T03:46:47.420Z,14.0615
2023-05-03T03:47:51.507Z,14.6835
2023-05-03T03:48:52.056Z,15.2732
2023-05-03T03:49:54.359Z,15.3852
2023-05-03T03:50:56.695Z,14.3443
2023-05-03T03:51:59.068Z,14.5029
2023-05-03T03:53:01.385Z,14.9944
2023-05-03T03:54:03.706Z,15.2625
2023-05-03T03:55:06.067Z,16.0115
2023-05-03T03:56:08.402Z,15.2128
2023-05-03T03:57:10.699Z,15.9363
2023-05-03T03:58:13.078Z,15.9979
2023-05-03T03:59:15.422Z,15.8295
2023-05-03T04:00:17.742Z,15.5881
2023-05-03T04:01:20.046Z,16.9306
2023-05-03T04:02:22.437Z,17.2730
2023-05-03T04:03:24.758Z,17.7255
2023-05-03T04:04:27.099Z,18.4684
2023-05-03T04:05:29.532Z,18.3061
2023-05-03T04:06:31.767Z,20.1501
2023-05-03T04:07:34.056Z,20.9452
2023-05-03T04:08:36.393Z,20.5225
2023-05-03T04:09:38.795Z,19.9181
2023-05-03T04:10:41.079Z,20.8217
2023-05-03T04:11:43.427Z,20.9315
2023-05-03T04:12:45.792Z,21.1312
2023-05-03T04:13:48.081Z,21.2268
2023-05-03T04:14:50.456Z,21.1377
2023-05-03T04:15:52.797Z,22.0471
2023-05-03T04:16:55.153Z,22.7625
2023-05-03T04:17:57.472Z,21.9620
2023-05-03T04:18:59.828Z,22.2324
2023-05-03T04:20:02.237Z,22.4289
2023-05-03T04:21:04.500Z,21.7105
2023-05-03T04:22:06.822Z,20.5523
2023-05-03T04:23:09.123Z,21.1412
2023-05-03T04:24:11.481Z,22.0998
2023-05-03T04:25:13.799Z,22.1481
2023-05-03T04:26:29.959Z,21.3984
2023-05-03T04:27:18.459Z,23.3347
2023-05-03T04:28:21.654Z,21.7273
2023-05-03T04:29:23.131Z,21.9082
2023-05-03T04:30:25.458Z,23.0986
2023-05-03T04:31:27.856Z,23.0299
2023-05-03T04:32:30.376Z,23.2795
2023-05-03T04:33:32.475Z,22.5902
2023-05-03T04:34:34.820Z,22.5860
2023-05-03T04:35:37.148Z,23.2682
2023-05-03T04:36:39.520Z,22.2862
2023-05-03T04:37:41.814Z,20.6349
2023-05-03T04:38:44.133Z,20.6727
2023-05-03T04:39:46.514Z,20.4572
2023-05-03T04:40:48.858Z,20.5716
2023-05-03T04:41:51.158Z,19.6325
2023-05-03T04:42:53.513Z,18.8618
2023-05-03T04:43:55.882Z,19.6314
2023-05-03T04:44:58.152Z,19.2709
2023-05-03T04:46:00.546Z,19.5203
2023-05-03T04:47:02.827Z,20.6177
2023-05-03T04:48:05.196Z,19.3542
2023-05-03T04:49:07.495Z,18.6684
2023-05-03T04:50:09.864Z,19.4625
2023-05-03T04:51:12.242Z,18.6924
2023-05-03T04:52:14.645Z,19.1859
2023-05-03T04:53:16.836Z,18.5471
2023-05-03T04:54:19.210Z,18.8206
2023-05-03T04:55:21.520Z,19.7428
2023-05-03T04:56:23.868Z,20.1164
2023-05-03T04:57:26.232Z,20.7946
2023-05-03T04:58:28.535Z,19.7347
2023-05-03T04:59:30.859Z,19.0915
2023-05-03T05:00:33.195Z,19.0067
2023-05-03T05:01:35.581Z,18.4986
2023-05-03T05:02:37.912Z,18.7725
2023-05-03T05:03:40.297Z,17.5791
2023-05-03T05:04:42.529Z,18.0113
2023-05-03T05:05:44.915Z,18.3791
2023-05-03T05:06:47.303Z,18.3755
2023-05-03T05:07:49.538Z,18.1280
2023-05-03T05:08:51.881Z,17.8000
2023-05-03T05:09:54.213Z,17.8879
2023-05-03T05:10:56.585Z,17.5944
2023-05-03T05:11:58.932Z,18.8989
2023-05-03T05:13:01.231Z,18.1647
2023-05-03T05:14:03.600Z,18.3715
2023-05-03T05:15:05.884Z,17.8407
2023-05-03T05:16:08.217Z,18.7160
2023-05-03T05:17:10.722Z,19.0298
2023-05-03T05:18:12.956Z,19.0333
2023-05-03T05:19:15.241Z,18.9287
2023-05-03T05:20:18.837Z,18.2531
2023-05-03T05:21:21.744Z,19.2649
2023-05-03T05:22:22.252Z,19.7348
2023-05-03T05:23:24.620Z,19.2400
2023-05-03T05:24:26.925Z,19.6053
2023-05-03T05:25:29.332Z,20.1431
2023-05-03T05:26:31.613Z,18.9688
2023-05-03T05:27:33.952Z,19.9447
2023-05-03T05:28:36.278Z,20.1702
2023-05-03T05:29:38.585Z,18.9138
2023-05-03T05:30:40.899Z,20.3349
2023-05-03T05:31:43.341Z,20.8194
2023-05-03T05:32:45.611Z,21.2220
2023-05-03T05:33:47.938Z,21.4239
2023-05-03T05:34:50.256Z,20.5282
2023-05-03T05:35:52.580Z,20.4504
2023-05-03T05:36:54.920Z,20.9981
2023-05-03T05:37:57.264Z,21.3687
2023-05-03T05:38:59.628Z,20.5100
2023-05-03T05:40:02.282Z,21.1224
2023-05-03T05:41:05.247Z,21.9290
2023-05-03T05:42:06.608Z,21.5494
2023-05-03T05:43:08.958Z,21.5417
2023-05-03T05:44:11.295Z,22.0151
2023-05-03T05:45:13.630Z,22.5360
2023-05-03T05:46:15.974Z,21.6651
2023-05-03T05:47:18.392Z,21.3244
2023-05-03T05:48:20.676Z,22.1239
2023-05-03T05:49:22.987Z,21.5258
2023-05-03T05:50:25.283Z,20.9478
2023-05-03T05:51:27.629Z,21.0299
2023-05-03T05:52:29.984Z,22.3659
2023-05-03T05:53:32.332Z,22.4486
2023-05-03T05:54:34.637Z,23.6692
2023-05-03T05:55:37.008Z,22.4401
2023-05-03T05:56:39.293Z,22.4821
2023-05-03T05:57:41.620Z,22.6669
2023-05-03T05:58:43.971Z,22.4158
2023-05-03T05:59:46.311Z,23.4953
2023-05-03T06:00:48.635Z,23.9031
2023-05-03T06:01:51.012Z,23.3914
2023-05-03T06:02:53.309Z,23.4403
2023-05-03T06:03:55.617Z,23.0574
2023-05-03T06:04:58.022Z,23.0081
2023-05-03T06:06:00.293Z,23.4307
2023-05-03T06:07:02.635Z,23.0543
2023-05-03T06:08:04.967Z,23.6016
2023-05-03T06:09:17.244Z,22.7689
2023-05-03T06:10:09.711Z,22.4478
2023-05-03T06:11:11.959Z,23.6274
2023-05-03T06:12:14.304Z,23.7524
2023-05-03T06:13:16.655Z,23.6810
2023-05-03T06:14:18.985Z,23.2355
2023-05-03T06:15:21.307Z,22.9463
2023-05-03T06:16:23.663Z,25.0674
2023-05-03T06:17:26.012Z,24.0569
2023-05-03T06:18:28.291Z,22.6543
2023-05-03T06:19:30.645Z,22.9951
2023-05-03T06:20:32.996Z,22.6395
2023-05-03T06:21:35.328Z,23.1655
2023-05-03T06:22:37.636Z,23.6977
2023-05-03T06:23:39.965Z,22.8326
2023-05-03T06:24:42.314Z,22.8607
2023-05-03T06:25:44.636Z,22.6611
2023-05-03T06:26:46.966Z,22.6953
2023-05-03T06:27:49.313Z,21.4276
2023-05-03T06:28:51.637Z,23.1055
2023-05-03T06:29:53.960Z,21.5934
2023-05-03T06:30:56.377Z,22.1263
2023-05-03T06:31:58.647Z,22.7865
2023-05-03T06:33:01.006Z,23.0480
2023-05-03T06:34:03.313Z,23.2727
2023-05-03T06:35:05.658Z,22.9757
2023-05-03T06:36:07.987Z,23.3198
2023-05-03T06:37:10.318Z,22.3013
2023-05-03T06:38:12.654Z,23.3471
2023-05-03T06:39:14.981Z,24.3039
2023-05-03T06:40:17.330Z,23.9989
2023-05-03T06:41:19.676Z,23.6791
2023-05-03T06:42:22.033Z,24.0721
2023-05-03T06:43:24.315Z,20.6598
2023-05-03T06:44:26.793Z,21.1108
2023-05-03T06:45:29.026Z,19.9469
2023-05-03T06:46:31.390Z,20.7830
2023-05-03T06:47:33.683Z,20.7263
2023-05-03T06:48:36.137Z,21.0608
2023-05-03T06:49:38.347Z,19.8276
2023-05-03T06:50:40.669Z,21.0033
2023-05-03T06:51:42.990Z,20.9745
2023-05-03T06:52:45.329Z,21.2417
2023-05-03T06:53:47.685Z,19.9287
2023-05-03T06:54:50.004Z,18.8109
2023-05-03T06:55:52.332Z,18.7934
2023-05-03T06:56:54.709Z,19.2290
2023-05-03T06:57:57.042Z,20.3831
2023-05-03T06:58:59.343Z,19.9400
2023-05-03T07:00:01.981Z,20.9808
2023-05-03T07:01:04.001Z,20.0766
2023-05-03T07:02:06.507Z,18.6018
2023-05-03T07:03:08.818Z,19.3805
2023-05-03T07:04:11.104Z,19.4957
2023-05-03T07:05:13.348Z,20.9444
2023-05-03T07:06:15.722Z,19.8697
2023-05-03T07:07:18.213Z,19.7719
2023-05-03T07:08:20.378Z,20.4954
2023-05-03T07:09:31.725Z,21.8482
2023-05-03T07:10:25.009Z,21.5267
2023-05-03T07:11:27.349Z,20.9150
2023-05-03T07:12:29.691Z,21.0340
2023-05-03T07:13:32.015Z,22.0379
2023-05-03T07:14:34.373Z,20.6921
2023-05-03T07:15:36.691Z,21.4425
2023-05-03T07:16:39.039Z,21.5380
2023-05-03T07:17:41.420Z,21.2061
2023-05-03T07:18:43.692Z,20.8363
2023-05-03T07:19:46.030Z,21.1744
2023-05-03T07:20:48.361Z,20.6577
2023-05-03T07:21:50.707Z,20.7994
2023-05-03T07:22:53.041Z,21.0265
2023-05-03T07:23:55.375Z,20.4735
2023-05-03T07:24:57.720Z,20.4784
2023-05-03T07:26:00.063Z,20.2948
2023-05-03T07:27:02.387Z,20.3224
2023-05-03T07:28:04.743Z,19.6521
2023-05-03T07:29:07.051Z,18.8819
2023-05-03T07:30:09.396Z,20.2569
2023-05-03T07:31:11.735Z,19.0183
2023-05-03T07:32:14.074Z,19.8912
2023-05-03T07:33:16.513Z,18.3678
2023-05-03T07:34:18.765Z,19.0712
2023-05-03T07:35:21.069Z,18.9629
2023-05-03T07:36:23.413Z,18.0908
2023-05-03T07:37:25.751Z,17.2186
2023-05-03T07:38:28.082Z,17.3739
2023-05-03T07:39:30.409Z,17.2760
2023-05-03T07:40:32.857Z,16.2970
2023-05-03T07:41:35.164Z,17.8071
2023-05-03T07:42:37.557Z,18.1353
2023-05-03T07:43:40.039Z,18.5393
2023-05-03T07:44:42.230Z,17.6993
2023-05-03T07:45:44.541Z,17.6278
2023-05-03T07:46:46.911Z,17.5431
2023-05-03T07:47:49.230Z,17.4004
2023-05-03T07:48:51.563Z,17.3202
2023-05-03T07:49:53.909Z,18.1919
2023-05-03T07:50:56.222Z,18.4386
2023-05-03T07:51:58.554Z,17.2434
2023-05-03T07:53:00.898Z,17.1663
2023-05-03T07:54:03.245Z,17.4054
2023-05-03T07:55:05.632Z,17.9380
2023-05-03T07:56:07.939Z,17.4244
2023-05-03T07:57:10.257Z,16.5960
2023-05-03T07:58:12.606Z,16.7892
2023-05-03T07:59:14.946Z,16.1877
2023-05-03T08:00:17.295Z,17.8053
2023-05-03T08:01:19.627Z,17.8391
2023-05-03T08:02:21.986Z,18.1293
2023-05-03T08:03:24.530Z,18.0261
2023-05-03T08:04:26.918Z,18.3290
2023-05-03T08:05:28.984Z,16.8919
2023-05-03T08:06:31.342Z,16.8414
2023-05-03T08:07:33.632Z,17.8974
2023-05-03T08:08:36.011Z,18.6089
2023-05-03T08:09:38.302Z,18.5922
2023-05-03T08:10:40.630Z,18.1890
2023-05-03T08:11:44.297Z,17.6203
2023-05-03T08:12:45.325Z,17.7838
2023-05-03T08:13:47.649Z,17.9375
2023-05-03T08:14:49.990Z,16.8556
2023-05-03T08:15:52.338Z,17.8461
2023-05-03T08:16:54.659Z,18.1224
2023-05-03T08:17:57.064Z,17.9962
2023-05-03T08:18:59.336Z,17.2098
2023-05-03T08:20:01.754Z,17.6281
2023-05-03T08:21:04.001Z,18.4682
2023-05-03T08:22:06.367Z,17.4173
2023-05-03T08:23:08.707Z,17.6564
2023-05-03T08:24:11.022Z,17.8870
2023-05-03T08:25:13.370Z,17.0486
2023-05-03T08:26:15.723Z,17.4252
2023-05-03T08:27:18.075Z,16.4433
2023-05-03T08:28:20.397Z,16.2648
2023-05-03T08:29:22.728Z,17.1710
2023-05-03T08:30:25.137Z,16.7510
2023-05-03T08:31:27.485Z,16.5611
2023-05-03T08:32:29.781Z,17.2855
2023-05-03T08:33:32.119Z,16.8111
2023-05-03T08:34:34.443Z,17.7127
2023-05-03T08:35:36.791Z,17.9886
2023-05-03T08:36:39.121Z,17.7306
2023-05-03T08:37:41.481Z,17.3341
2023-05-03T08:38:43.792Z,18.0691
2023-05-03T08:39:46.140Z,19.0334
2023-05-03T08:40:48.482Z,17.3644
2023-05-03T08:41:50.827Z,18.2171
2023-05-03T08:42:53.172Z,18.3642
2023-05-03T08:43:55.495Z,15.6224
2023-05-03T08:44:57.874Z,16.7795
2023-05-03T08:46:00.256Z,18.0985
2023-05-03T08:47:02.554Z,17.1014
2023-05-03T08:48:04.972Z,16.9580
2023-05-03T08:49:07.234Z,16.8911
2023-05-03T08:50:09.572Z,17.1125
2023-05-03T08:51:11.938Z,16.9768
2023-05-03T08:52:14.255Z,16.6746
2023-05-03T08:53:16.611Z,16.8889
2023-05-03T08:54:18.950Z,16.6905
2023-05-03T08:55:21.261Z,17.2715
2023-05-03T08:56:23.837Z,17.6228
2023-05-03T08:57:25.962Z,16.8470
2023-05-03T08:58:28.522Z,17.4212
2023-05-03T08:59:30.698Z,16.5639
2023-05-03T09:00:33.415Z,15.8355
2023-05-03T09:01:35.575Z,15.8742
2023-05-03T09:02:37.799Z,15.5463
2023-05-03T09:03:40.240Z,16.1273
2023-05-03T09:04:42.448Z,14.7034
2023-05-03T09:05:46.757Z,14.4976
2023-05-03T09:06:47.274Z,15.3116
2023-05-03T09:07:49.577Z,15.1800
2023-05-03T09:08:51.975Z,15.8436
2023-05-03T09:09:54.220Z,15.3267
2023-05-03T09:10:56.424Z,14.7534
2023-05-03T09:11:59.370Z,15.4889
2023-05-03T09:13:01.169Z,15.3204
2023-05-03T09:14:03.473Z,15.3967
2023-05-03T09:15:06.186Z,15.4192
2023-05-03T09:16:08.210Z,15.7188
2023-05-03T09:17:10.515Z,15.0288
2023-05-03T09:18:12.876Z,14.6062
2023-05-03T09:19:15.191Z,14.8140
2023-05-03T09:20:17.530Z,13.7120
2023-05-03T09:21:19.818Z,13.6711
2023-05-03T09:22:22.199Z,15.3249
2023-05-03T09:23:24.730Z,14.3516
2023-05-03T09:24:26.863Z,14.1367
2023-05-03T09:25:29.372Z,13.5445
2023-05-03T09:26:31.585Z,13.8366
2023-05-03T09:27:34.064Z,15.1532
2023-05-03T09:28:36.267Z,14.6649
2023-05-03T09:29:38.714Z,15.6141
2023-05-03T09:30:40.978Z,13.6576
2023-05-03T09:31:43.327Z,14.2129
2023-05-03T09:32:45.649Z,14.4255
2023-05-03T09:33:48.016Z,13.4484
2023-05-03T09:34:50.331Z,12.8739
2023-05-03T09:35:52.726Z,12.8431
2023-05-03T09:36:55.006Z,13.4029
2023-05-03T09:37:57.394Z,12.1349
2023-05-03T09:38:59.705Z,13.2103
2023-05-03T09:40:02.392Z,12.6805
2023-05-03T09:41:04.419Z,11.9644
2023-05-03T09:42:06.744Z,12.0162
2023-05-03T09:43:09.097Z,11.7722
2023-05-03T09:44:11.443Z,12.7566
2023-05-03T09:45:13.787Z,11.8955
2023-05-03T09:46:16.192Z,10.8802
2023-05-03T09:47:18.457Z,11.6986
2023-05-03T09:48:20.906Z,11.7196
2023-05-03T09:49:23.157Z,11.7764
2023-05-03T09:50:25.503Z,12.0504
2023-05-03T09:51:27.856Z,11.1020
2023-05-03T09:52:30.179Z,11.0956
2023-05-03T09:53:32.525Z,10.9469
2023-05-03T09:54:34.879Z,11.1327
2023-05-03T09:55:37.221Z,10.1046
2023-05-03T09:56:39.574Z,9.7251
2023-05-03T09:57:41.921Z,10.3155
2023-05-03T09:58:44.325Z,10.6191
2023-05-03T09:59:46.621Z,9.5830
2023-05-03T10:00:50.954Z,9.4203
2023-05-03T10:01:51.494Z,9.1905
2023-05-03T10:02:54.604Z,7.8274
2023-05-03T10:03:56.148Z,8.8048
2023-05-03T10:04:58.336Z,9.2657
2023-05-03T10:06:00.691Z,8.5541
2023-05-03T10:07:03.050Z,8.7677
2023-05-03T10:08:05.392Z,8.8824
2023-05-03T10:09:07.735Z,9.6776
2023-05-03T10:10:10.087Z,8.9311
2023-05-03T10:11:12.427Z,9.0077
2023-05-03T10:12:14.783Z,9.8923
2023-05-03T10:13:17.131Z,8.2759
2023-05-03T10:14:19.472Z,9.5050
2023-05-03T10:15:21.843Z,9.6557
2023-05-03T10:16:24.243Z,9.8124
2023-05-03T10:17:39.415Z,9.3110
2023-05-03T10:18:28.910Z,9.6944
2023-05-03T10:19:31.293Z,8.7279
2023-05-03T10:20:33.607Z,9.4177
2023-05-03T10:21:35.885Z,9.3007
2023-05-03T10:22:38.240Z,8.5313
2023-05-03T10:23:40.582Z,8.4906
2023-05-03T10:24:42.922Z,9.4353
2023-05-03T10:25:45.274Z,8.5838
2023-05-03T10:26:47.623Z,7.9543
2023-05-03T10:27:49.956Z,9.1131
2023-05-03T10:28:52.322Z,7.7550
2023-05-03T10:29:54.653Z,7.9715
2023-05-03T10:30:57.022Z,8.7425
2023-05-03T10:31:59.338Z,8.3503
2023-05-03T10:33:01.770Z,7.9100
2023-05-03T10:34:04.070Z,8.4473
2023-05-03T10:35:06.770Z,8.0903
2023-05-03T10:36:08.740Z,9.0589
2023-05-03T10:37:11.133Z,8.5026
2023-05-03T10:38:13.528Z,8.4503
2023-05-03T10:39:16.049Z,8.7982
2023-05-03T10:40:18.196Z,8.0202
2023-05-03T10:41:20.487Z,8.1231
2023-05-03T10:42:22.842Z,7.8516
2023-05-03T10:43:25.187Z,7.9316
2023-05-03T10:44:27.535Z,8.8402
2023-05-03T10:45:29.873Z,8.6349
2023-05-03T10:46:32.279Z,7.8375
2023-05-03T10:47:34.588Z,7.5853
2023-05-03T10:48:36.892Z,8.2631
2023-05-03T10:49:39.249Z,8.1236
2023-05-03T10:50:41.609Z,7.7419
2023-05-03T10:51:43.940Z,7.1612
2023-05-03T10:52:46.299Z,7.2632
2023-05-03T10:53:48.628Z,7.5794
2023-05-03T10:54:50.986Z,7.0942
2023-05-03T10:55:53.327Z,6.8122
2023-05-03T10:56:55.656Z,7.1339
2023-05-03T10:57:58.002Z,7.8837
2023-05-03T10:59:00.334Z,7.5117
2023-05-03T11:00:02.718Z,7.7420
2023-05-03T11:01:05.092Z,7.0806
2023-05-03T11:02:07.395Z,7.3259
2023-05-03T11:03:09.727Z,6.7945
2023-05-03T11:04:12.098Z,6.5940
2023-05-03T11:05:14.408Z,7.9504
2023-05-03T11:06:16.785Z,7.3419
2023-05-03T11:07:19.144Z,6.3293
2023-05-03T11:08:21.445Z,6.7150
2023-05-03T11:09:23.814Z,6.7493
2023-05-03T11:10:26.126Z,7.2494
2023-05-03T11:11:28.527Z,6.9730
2023-05-03T11:12:30.824Z,7.2132
2023-05-03T11:13:33.188Z,7.5359
2023-05-03T11:14:35.529Z,7.1042
2023-05-03T11:15:37.864Z,6.5366
2023-05-03T11:16:40.310Z,6.3448
2023-05-03T11:17:42.716Z,6.9671
2023-05-03T11:18:44.897Z,6.2465
2023-05-03T11:19:47.237Z,6.2422
2023-05-03T11:20:49.578Z,6.0297
2023-05-03T11:21:52.022Z,6.3412
2023-05-03T11:22:54.259Z,6.2046
2023-05-03T11:23:56.623Z,5.9824
2023-05-03T11:24:58.952Z,6.4909
2023-05-03T11:26:01.287Z,6.5738
2023-05-03T11:27:07.696Z,6.3538
2023-05-03T11:28:05.979Z,6.5037
2023-05-03T11:29:08.337Z,6.2859
2023-05-03T11:30:10.675Z,6.1432
2023-05-03T11:31:13.013Z,6.3699
2023-05-03T11:32:15.472Z,5.6084
2023-05-03T11:33:17.687Z,5.9573
2023-05-03T11:34:20.040Z,6.0303
2023-05-03T11:35:22.369Z,5.9461
2023-05-03T11:36:24.714Z,5.4090
2023-05-03T11:37:27.064Z,5.5481
2023-05-03T11:38:29.412Z,6.3482
2023-05-03T11:39:31.767Z,6.3047
2023-05-03T11:40:34.092Z,5.8126
2023-05-03T11:41:36.429Z,6.2078
2023-05-03T11:42:38.811Z,5.7368
2023-05-03T11:43:41.144Z,5.7814
2023-05-03T11:44:43.499Z,5.8129
2023-05-03T11:45:45.997Z,5.9123
2023-05-03T11:46:48.666Z,5.5339
2023-05-03T11:47:50.609Z,5.5908
2023-05-03T11:48:52.966Z,5.7112
2023-05-03T11:49:55.292Z,5.5155
2023-05-03T11:50:57.637Z,5.9082
2023-05-03T11:52:00.052Z,5.9537
2023-05-03T11:53:02.394Z,5.3880
2023-05-03T11:54:16.863Z,5.5860
2023-05-03T11:55:07.000Z,5.9021
2023-05-03T11:56:09.348Z,6.3114
2023-05-03T11:57:11.714Z,6.4324
2023-05-03T11:58:14.066Z,5.7352
2023-05-03T11:59:16.479Z,6.0766
2023-05-03T12:00:18.759Z,6.4324
2023-05-03T12:01:21.144Z,6.4086
2023-05-03T12:02:23.547Z,6.0783
2023-05-03T12:03:30.720Z,6.3300
2023-05-03T12:04:28.310Z,6.4520
2023-05-03T12:05:30.949Z,6.7071
2023-05-03T12:06:34.170Z,6.5094
2023-05-03T12:07:35.430Z,5.8280
2023-05-03T12:08:41.068Z,5.8031
2023-05-03T12:09:40.558Z,5.6265
2023-05-03T12:10:42.910Z,6.2206
2023-05-03T12:11:45.646Z,6.2731
2023-05-03T12:12:50.217Z,5.8118
2023-05-03T12:13:50.839Z,5.5738
2023-05-03T12:14:51.648Z,5.8957
2023-05-03T12:16:06.530Z,7.3038
2023-05-03T12:16:57.098Z,6.6929
2023-05-03T12:17:59.846Z,6.6453
2023-05-03T12:19:02.054Z,6.1429
2023-05-03T12:21:31.035Z,6.4359
2023-05-03T12:22:20.780Z,5.6105
2023-05-03T12:23:10.894Z,6.4083
2023-05-03T12:24:14.923Z,6.6163
2023-05-03T12:25:15.783Z,6.4933
2023-05-03T12:26:18.853Z,6.5426
2023-05-03T12:27:19.810Z,5.9915
2023-05-03T12:28:22.200Z,6.5225
2023-05-03T12:29:24.432Z,5.9714
2023-05-03T12:30:28.768Z,6.1301
2023-05-03T12:31:29.501Z,6.1272
2023-05-03T12:32:31.554Z,5.6390
2023-05-03T12:33:34.050Z,5.8040
2023-05-03T12:34:37.407Z,5.8228
2023-05-03T12:35:40.841Z,5.5530
2023-05-03T12:36:43.436Z,5.9917
2023-05-03T12:37:43.869Z,6.6585
2023-05-03T12:38:45.602Z,5.9331
2023-05-03T12:39:58.484Z,6.2715